sensor_id;sensor_type;location;lat;lon;timestamp;P1;durP1;ratioP1;P2;durP2;ratioP2
2710;SDS011;20721;47.402;8.550;2024-02-21T00:00:02;4.16;;;4.16;;
2710;SDS011;20721;47.402;8.550;2024-02-21T00:01:59;4.16;;;4.16;;
2710;SDS011;20721;47.402;8.550;2024-02-21T00:03:59;4.95;;;4.95;;
2710;SDS011;20721;47.402;8.550;2024-02-21T00:05:59;4.46;;;4.46;;
2710;SDS011;20721;47.402;8.550;2024-02-21T00:07:59;4.82;;;4.82;;
2710;SDS011;20721;47.402;8.550;2024-02-21T00:09:59;3.89;;;3.89;;
2710;SDS011;20721;47.402;8.550;2024-02-21T00:11:59;4.47;;;4.46;;
2710;SDS011;20721;47.402;8.550;2024-02-21T00:14:59;4.47;;;4.47;;
2710;SDS011;20721;47.402;8.550;2024-02-21T00:16:59;4.04;;;4.04;;
2710;SDS011;20721;47.402;8.550;2024-02-21T00:18:59;3.95;;;3.95;;
2710;SDS011;20721;47.402;8.550;2024-02-21T00:21:00;4.47;;;4.47;;
2710;SDS011;20721;47.402;8.550;2024-02-21T00:22:59;4.36;;;4.36;;
2710;SDS011;20721;47.402;8.550;2024-02-21T00:24:59;3.98;;;3.98;;
2710;SDS011;20721;47.402;8.550;2024-02-21T00:26:59;5.03;;;5.03;;
2710;SDS011;20721;47.402;8.550;2024-02-21T00:28:59;4.57;;;4.57;;
2710;SDS011;20721;47.402;8.550;2024-02-21T00:31:00;3.95;;;3.95;;
2710;SDS011;20721;47.402;8.550;2024-02-21T00:34:59;3.60;;;3.60;;
2710;SDS011;20721;47.402;8.550;2024-02-21T00:37:59;4.57;;;4.57;;
2710;SDS011;20721;47.402;8.550;2024-02-21T00:40:59;4.05;;;4.05;;
2710;SDS011;20721;47.402;8.550;2024-02-21T00:42:59;3.79;;;3.79;;
2710;SDS011;20721;47.402;8.550;2024-02-21T00:44:59;3.74;;;3.74;;
2710;SDS011;20721;47.402;8.550;2024-02-21T00:46:59;3.20;;;3.20;;
2710;SDS011;20721;47.402;8.550;2024-02-21T00:49:00;3.48;;;3.48;;
2710;SDS011;20721;47.402;8.550;2024-02-21T00:50:59;3.42;;;3.42;;
2710;SDS011;20721;47.402;8.550;2024-02-21T00:52:59;4.04;;;4.04;;
2710;SDS011;20721;47.402;8.550;2024-02-21T00:55:05;4.42;;;4.42;;
2710;SDS011;20721;47.402;8.550;2024-02-21T00:56:59;3.66;;;3.66;;
2710;SDS011;20721;47.402;8.550;2024-02-21T00:58:59;3.59;;;3.59;;
2710;SDS011;20721;47.402;8.550;2024-02-21T01:01:00;3.45;;;3.45;;
2710;SDS011;20721;47.402;8.550;2024-02-21T01:03:03;3.86;;;3.86;;
2710;SDS011;20721;47.402;8.550;2024-02-21T01:04:59;4.04;;;4.04;;
2710;SDS011;20721;47.402;8.550;2024-02-21T01:06:59;3.69;;;3.69;;
2710;SDS011;20721;47.402;8.550;2024-02-21T01:08:59;4.00;;;4.00;;
2710;SDS011;20721;47.402;8.550;2024-02-21T01:11:59;4.08;;;4.08;;
2710;SDS011;20721;47.402;8.550;2024-02-21T01:13:59;3.60;;;3.60;;
2710;SDS011;20721;47.402;8.550;2024-02-21T01:15:59;3.95;;;3.95;;
2710;SDS011;20721;47.402;8.550;2024-02-21T01:18:04;4.40;;;4.40;;
2710;SDS011;20721;47.402;8.550;2024-02-21T01:19:59;3.65;;;3.65;;
2710;SDS011;20721;47.402;8.550;2024-02-21T01:24:00;3.30;;;3.30;;
2710;SDS011;20721;47.402;8.550;2024-02-21T01:25:59;3.59;;;3.59;;
2710;SDS011;20721;47.402;8.550;2024-02-21T01:27:59;2.67;;;2.67;;
2710;SDS011;20721;47.402;8.550;2024-02-21T01:30:59;3.17;;;3.17;;
2710;SDS011;20721;47.402;8.550;2024-02-21T01:32:59;3.51;;;3.51;;
2710;SDS011;20721;47.402;8.550;2024-02-21T01:35:00;3.18;;;3.18;;
2710;SDS011;20721;47.402;8.550;2024-02-21T01:36:59;3.11;;;3.11;;
2710;SDS011;20721;47.402;8.550;2024-02-21T01:38:59;4.17;;;4.17;;
2710;SDS011;20721;47.402;8.550;2024-02-21T01:40:59;3.73;;;3.73;;
2710;SDS011;20721;47.402;8.550;2024-02-21T01:42:59;3.90;;;3.90;;
2710;SDS011;20721;47.402;8.550;2024-02-21T01:44:59;3.07;;;3.07;;
2710;SDS011;20721;47.402;8.550;2024-02-21T01:46:59;3.28;;;3.28;;
2710;SDS011;20721;47.402;8.550;2024-02-21T01:48:59;3.09;;;3.09;;
2710;SDS011;20721;47.402;8.550;2024-02-21T01:51:00;3.20;;;3.20;;
2710;SDS011;20721;47.402;8.550;2024-02-21T01:53:00;3.28;;;3.28;;
2710;SDS011;20721;47.402;8.550;2024-02-21T01:55:00;2.88;;;2.88;;
2710;SDS011;20721;47.402;8.550;2024-02-21T01:57:00;3.19;;;3.19;;
2710;SDS011;20721;47.402;8.550;2024-02-21T02:00:01;3.09;;;3.09;;
2710;SDS011;20721;47.402;8.550;2024-02-21T02:02:01;2.82;;;2.82;;
2710;SDS011;20721;47.402;8.550;2024-02-21T02:04:00;3.10;;;3.10;;
2710;SDS011;20721;47.402;8.550;2024-02-21T02:05:59;3.56;;;3.56;;
2710;SDS011;20721;47.402;8.550;2024-02-21T02:07:59;3.43;;;3.43;;
2710;SDS011;20721;47.402;8.550;2024-02-21T02:09:59;3.16;;;3.16;;
2710;SDS011;20721;47.402;8.550;2024-02-21T02:12:01;3.34;;;3.34;;
2710;SDS011;20721;47.402;8.550;2024-02-21T02:13:59;3.37;;;3.37;;
2710;SDS011;20721;47.402;8.550;2024-02-21T02:16:00;3.78;;;3.78;;
2710;SDS011;20721;47.402;8.550;2024-02-21T02:19:00;4.28;;;4.28;;
2710;SDS011;20721;47.402;8.550;2024-02-21T02:21:00;4.30;;;4.28;;
2710;SDS011;20721;47.402;8.550;2024-02-21T02:23:00;3.64;;;3.64;;
2710;SDS011;20721;47.402;8.550;2024-02-21T02:26:59;4.31;;;4.31;;
2710;SDS011;20721;47.402;8.550;2024-02-21T02:29:01;3.59;;;3.59;;
2710;SDS011;20721;47.402;8.550;2024-02-21T02:30:59;3.70;;;3.70;;
2710;SDS011;20721;47.402;8.550;2024-02-21T02:34:59;3.47;;;3.45;;
2710;SDS011;20721;47.402;8.550;2024-02-21T02:36:59;3.35;;;3.33;;
2710;SDS011;20721;47.402;8.550;2024-02-21T02:38:59;3.19;;;3.16;;
2710;SDS011;20721;47.402;8.550;2024-02-21T02:40:59;3.48;;;3.47;;
2710;SDS011;20721;47.402;8.550;2024-02-21T02:43:00;2.63;;;2.63;;
2710;SDS011;20721;47.402;8.550;2024-02-21T02:44:59;2.90;;;2.90;;
2710;SDS011;20721;47.402;8.550;2024-02-21T02:46:59;3.23;;;3.23;;
2710;SDS011;20721;47.402;8.550;2024-02-21T02:49:00;2.78;;;2.78;;
2710;SDS011;20721;47.402;8.550;2024-02-21T02:50:59;3.29;;;3.29;;
2710;SDS011;20721;47.402;8.550;2024-02-21T02:53:59;3.52;;;3.52;;
2710;SDS011;20721;47.402;8.550;2024-02-21T02:55:59;3.67;;;3.67;;
2710;SDS011;20721;47.402;8.550;2024-02-21T02:58:59;4.02;;;4.02;;
2710;SDS011;20721;47.402;8.550;2024-02-21T03:01:00;4.39;;;4.39;;
2710;SDS011;20721;47.402;8.550;2024-02-21T03:02:59;3.18;;;3.18;;
2710;SDS011;20721;47.402;8.550;2024-02-21T03:05:00;3.19;;;3.19;;
2710;SDS011;20721;47.402;8.550;2024-02-21T03:07:00;3.38;;;3.38;;
2710;SDS011;20721;47.402;8.550;2024-02-21T03:09:00;3.44;;;3.44;;
2710;SDS011;20721;47.402;8.550;2024-02-21T03:11:00;3.18;;;3.18;;
2710;SDS011;20721;47.402;8.550;2024-02-21T03:13:00;3.56;;;3.56;;
2710;SDS011;20721;47.402;8.550;2024-02-21T03:18:00;3.22;;;3.22;;
2710;SDS011;20721;47.402;8.550;2024-02-21T03:20:59;2.71;;;2.71;;
2710;SDS011;20721;47.402;8.550;2024-02-21T03:24:00;3.03;;;3.03;;
2710;SDS011;20721;47.402;8.550;2024-02-21T03:26:00;2.86;;;2.86;;
2710;SDS011;20721;47.402;8.550;2024-02-21T03:29:00;3.02;;;3.02;;
2710;SDS011;20721;47.402;8.550;2024-02-21T03:30:59;3.01;;;3.01;;
2710;SDS011;20721;47.402;8.550;2024-02-21T03:34:00;3.23;;;3.23;;
2710;SDS011;20721;47.402;8.550;2024-02-21T03:35:59;2.61;;;2.61;;
2710;SDS011;20721;47.402;8.550;2024-02-21T03:38:00;2.77;;;2.77;;
2710;SDS011;20721;47.402;8.550;2024-02-21T03:41:00;3.30;;;3.30;;
2710;SDS011;20721;47.402;8.550;2024-02-21T03:42:59;2.37;;;2.37;;
2710;SDS011;20721;47.402;8.550;2024-02-21T03:45:00;2.95;;;2.95;;
2710;SDS011;20721;47.402;8.550;2024-02-21T03:47:01;2.77;;;2.77;;
2710;SDS011;20721;47.402;8.550;2024-02-21T03:48:59;2.86;;;2.86;;
2710;SDS011;20721;47.402;8.550;2024-02-21T03:51:01;2.80;;;2.80;;
2710;SDS011;20721;47.402;8.550;2024-02-21T03:54:00;2.94;;;2.94;;
2710;SDS011;20721;47.402;8.550;2024-02-21T03:56:01;3.23;;;3.23;;
2710;SDS011;20721;47.402;8.550;2024-02-21T03:58:00;3.30;;;3.30;;
2710;SDS011;20721;47.402;8.550;2024-02-21T04:00:00;3.18;;;3.18;;
2710;SDS011;20721;47.402;8.550;2024-02-21T04:04:00;2.83;;;2.83;;
2710;SDS011;20721;47.402;8.550;2024-02-21T04:06:00;2.59;;;2.59;;
2710;SDS011;20721;47.402;8.550;2024-02-21T04:08:03;2.80;;;2.80;;
2710;SDS011;20721;47.402;8.550;2024-02-21T04:11:00;2.61;;;2.61;;
2710;SDS011;20721;47.402;8.550;2024-02-21T04:13:00;2.90;;;2.90;;
2710;SDS011;20721;47.402;8.550;2024-02-21T04:15:00;3.11;;;3.11;;
2710;SDS011;20721;47.402;8.550;2024-02-21T04:17:00;3.05;;;3.05;;
2710;SDS011;20721;47.402;8.550;2024-02-21T04:19:01;2.81;;;2.81;;
2710;SDS011;20721;47.402;8.550;2024-02-21T04:21:00;2.50;;;2.50;;
2710;SDS011;20721;47.402;8.550;2024-02-21T04:23:00;3.32;;;3.32;;
2710;SDS011;20721;47.402;8.550;2024-02-21T04:25:00;2.55;;;2.55;;
2710;SDS011;20721;47.402;8.550;2024-02-21T04:28:00;3.25;;;3.25;;
2710;SDS011;20721;47.402;8.550;2024-02-21T04:31:00;2.88;;;2.88;;
2710;SDS011;20721;47.402;8.550;2024-02-21T04:33:00;3.43;;;3.43;;
2710;SDS011;20721;47.402;8.550;2024-02-21T04:37:01;3.15;;;3.15;;
2710;SDS011;20721;47.402;8.550;2024-02-21T04:39:00;2.88;;;2.88;;
2710;SDS011;20721;47.402;8.550;2024-02-21T04:41:00;2.67;;;2.67;;
2710;SDS011;20721;47.402;8.550;2024-02-21T04:43:00;2.38;;;2.38;;
2710;SDS011;20721;47.402;8.550;2024-02-21T04:45:00;2.82;;;2.82;;
2710;SDS011;20721;47.402;8.550;2024-02-21T04:47:00;2.76;;;2.76;;
2710;SDS011;20721;47.402;8.550;2024-02-21T04:49:00;2.97;;;2.97;;
2710;SDS011;20721;47.402;8.550;2024-02-21T04:51:00;2.32;;;2.32;;
2710;SDS011;20721;47.402;8.550;2024-02-21T04:53:00;2.40;;;2.40;;
2710;SDS011;20721;47.402;8.550;2024-02-21T04:55:00;2.25;;;2.25;;
2710;SDS011;20721;47.402;8.550;2024-02-21T04:57:03;3.01;;;3.01;;
2710;SDS011;20721;47.402;8.550;2024-02-21T04:59:00;2.96;;;2.96;;
2710;SDS011;20721;47.402;8.550;2024-02-21T05:01:00;2.99;;;2.99;;
2710;SDS011;20721;47.402;8.550;2024-02-21T05:03:00;3.14;;;3.14;;
2710;SDS011;20721;47.402;8.550;2024-02-21T05:05:00;2.64;;;2.64;;
2710;SDS011;20721;47.402;8.550;2024-02-21T05:07:00;3.14;;;3.14;;
2710;SDS011;20721;47.402;8.550;2024-02-21T05:09:00;2.76;;;2.76;;
2710;SDS011;20721;47.402;8.550;2024-02-21T05:11:00;3.21;;;3.21;;
2710;SDS011;20721;47.402;8.550;2024-02-21T05:13:00;3.28;;;3.28;;
2710;SDS011;20721;47.402;8.550;2024-02-21T05:15:00;3.47;;;3.47;;
2710;SDS011;20721;47.402;8.550;2024-02-21T05:19:00;3.15;;;3.15;;
2710;SDS011;20721;47.402;8.550;2024-02-21T05:21:00;3.20;;;3.20;;
2710;SDS011;20721;47.402;8.550;2024-02-21T05:23:00;2.92;;;2.92;;
2710;SDS011;20721;47.402;8.550;2024-02-21T05:26:00;2.79;;;2.79;;
2710;SDS011;20721;47.402;8.550;2024-02-21T05:28:00;3.15;;;3.15;;
2710;SDS011;20721;47.402;8.550;2024-02-21T05:30:00;3.22;;;3.22;;
2710;SDS011;20721;47.402;8.550;2024-02-21T05:33:03;2.82;;;2.82;;
2710;SDS011;20721;47.402;8.550;2024-02-21T05:35:01;3.13;;;3.13;;
2710;SDS011;20721;47.402;8.550;2024-02-21T05:38:02;3.71;;;3.71;;
2710;SDS011;20721;47.402;8.550;2024-02-21T05:40:00;4.04;;;4.04;;
2710;SDS011;20721;47.402;8.550;2024-02-21T05:42:00;3.89;;;3.89;;
2710;SDS011;20721;47.402;8.550;2024-02-21T05:45:00;3.29;;;3.29;;
2710;SDS011;20721;47.402;8.550;2024-02-21T05:47:00;2.98;;;2.98;;
2710;SDS011;20721;47.402;8.550;2024-02-21T05:49:00;3.63;;;3.63;;
2710;SDS011;20721;47.402;8.550;2024-02-21T05:52:00;3.40;;;3.40;;
2710;SDS011;20721;47.402;8.550;2024-02-21T05:54:00;3.73;;;3.73;;
2710;SDS011;20721;47.402;8.550;2024-02-21T05:56:00;4.05;;;4.05;;
2710;SDS011;20721;47.402;8.550;2024-02-21T05:58:03;4.31;;;4.31;;
2710;SDS011;20721;47.402;8.550;2024-02-21T06:00:00;4.31;;;4.31;;
2710;SDS011;20721;47.402;8.550;2024-02-21T06:02:05;3.71;;;3.71;;
2710;SDS011;20721;47.402;8.550;2024-02-21T06:04:00;3.62;;;3.62;;
2710;SDS011;20721;47.402;8.550;2024-02-21T06:06:00;3.74;;;3.74;;
2710;SDS011;20721;47.402;8.550;2024-02-21T06:08:00;3.67;;;3.67;;
2710;SDS011;20721;47.402;8.550;2024-02-21T06:10:01;3.92;;;3.92;;
2710;SDS011;20721;47.402;8.550;2024-02-21T06:12:00;4.77;;;4.77;;
2710;SDS011;20721;47.402;8.550;2024-02-21T06:14:00;4.46;;;4.46;;
2710;SDS011;20721;47.402;8.550;2024-02-21T06:16:00;3.94;;;3.94;;
2710;SDS011;20721;47.402;8.550;2024-02-21T06:18:00;4.10;;;4.10;;
2710;SDS011;20721;47.402;8.550;2024-02-21T06:20:00;4.30;;;4.30;;
2710;SDS011;20721;47.402;8.550;2024-02-21T06:22:00;4.25;;;4.25;;
2710;SDS011;20721;47.402;8.550;2024-02-21T06:24:00;5.27;;;5.27;;
2710;SDS011;20721;47.402;8.550;2024-02-21T06:26:00;5.54;;;5.54;;
2710;SDS011;20721;47.402;8.550;2024-02-21T06:28:00;6.00;;;6.00;;
2710;SDS011;20721;47.402;8.550;2024-02-21T06:31:00;2.53;;;2.53;;
2710;SDS011;20721;47.402;8.550;2024-02-21T06:33:00;3.36;;;3.36;;
2710;SDS011;20721;47.402;8.550;2024-02-21T06:35:00;4.92;;;4.92;;
2710;SDS011;20721;47.402;8.550;2024-02-21T06:37:00;5.34;;;5.34;;
2710;SDS011;20721;47.402;8.550;2024-02-21T06:39:00;5.33;;;5.33;;
2710;SDS011;20721;47.402;8.550;2024-02-21T06:41:02;4.29;;;4.29;;
2710;SDS011;20721;47.402;8.550;2024-02-21T06:43:00;4.23;;;4.23;;
2710;SDS011;20721;47.402;8.550;2024-02-21T06:45:00;4.38;;;4.38;;
2710;SDS011;20721;47.402;8.550;2024-02-21T06:47:00;4.10;;;4.10;;
2710;SDS011;20721;47.402;8.550;2024-02-21T06:49:00;4.77;;;4.77;;
2710;SDS011;20721;47.402;8.550;2024-02-21T06:51:01;5.19;;;5.19;;
2710;SDS011;20721;47.402;8.550;2024-02-21T06:53:00;4.94;;;4.94;;
2710;SDS011;20721;47.402;8.550;2024-02-21T06:55:00;4.89;;;4.89;;
2710;SDS011;20721;47.402;8.550;2024-02-21T06:57:00;4.80;;;4.80;;
2710;SDS011;20721;47.402;8.550;2024-02-21T06:59:00;5.26;;;5.26;;
2710;SDS011;20721;47.402;8.550;2024-02-21T07:01:00;5.84;;;5.84;;
2710;SDS011;20721;47.402;8.550;2024-02-21T07:05:00;5.13;;;5.13;;
2710;SDS011;20721;47.402;8.550;2024-02-21T07:07:01;5.10;;;5.10;;
2710;SDS011;20721;47.402;8.550;2024-02-21T07:09:00;5.72;;;5.72;;
2710;SDS011;20721;47.402;8.550;2024-02-21T07:11:00;5.18;;;5.18;;
2710;SDS011;20721;47.402;8.550;2024-02-21T07:13:02;5.19;;;5.19;;
2710;SDS011;20721;47.402;8.550;2024-02-21T07:15:00;5.04;;;5.04;;
2710;SDS011;20721;47.402;8.550;2024-02-21T07:17:00;5.68;;;5.68;;
2710;SDS011;20721;47.402;8.550;2024-02-21T07:19:00;4.95;;;4.95;;
2710;SDS011;20721;47.402;8.550;2024-02-21T07:22:01;5.66;;;5.66;;
2710;SDS011;20721;47.402;8.550;2024-02-21T07:24:01;4.81;;;4.81;;
2710;SDS011;20721;47.402;8.550;2024-02-21T07:26:00;4.98;;;4.98;;
2710;SDS011;20721;47.402;8.550;2024-02-21T07:28:00;5.87;;;5.87;;
2710;SDS011;20721;47.402;8.550;2024-02-21T07:30:00;4.69;;;4.69;;
2710;SDS011;20721;47.402;8.550;2024-02-21T07:32:01;3.07;;;3.07;;
2710;SDS011;20721;47.402;8.550;2024-02-21T07:34:00;3.40;;;3.40;;
2710;SDS011;20721;47.402;8.550;2024-02-21T07:36:00;3.07;;;3.07;;
2710;SDS011;20721;47.402;8.550;2024-02-21T07:38:00;3.47;;;3.47;;
2710;SDS011;20721;47.402;8.550;2024-02-21T07:40:00;2.87;;;2.87;;
2710;SDS011;20721;47.402;8.550;2024-02-21T07:42:00;3.29;;;3.29;;
2710;SDS011;20721;47.402;8.550;2024-02-21T07:44:00;3.14;;;3.14;;
2710;SDS011;20721;47.402;8.550;2024-02-21T07:46:00;3.05;;;3.05;;
2710;SDS011;20721;47.402;8.550;2024-02-21T07:48:00;3.00;;;3.00;;
2710;SDS011;20721;47.402;8.550;2024-02-21T07:50:01;3.50;;;3.50;;
2710;SDS011;20721;47.402;8.550;2024-02-21T07:52:00;3.79;;;3.79;;
2710;SDS011;20721;47.402;8.550;2024-02-21T07:54:00;3.54;;;3.54;;
2710;SDS011;20721;47.402;8.550;2024-02-21T07:56:00;2.97;;;2.97;;
2710;SDS011;20721;47.402;8.550;2024-02-21T07:58:00;3.18;;;3.18;;
2710;SDS011;20721;47.402;8.550;2024-02-21T08:00:00;3.50;;;3.50;;
2710;SDS011;20721;47.402;8.550;2024-02-21T08:02:00;3.14;;;3.14;;
2710;SDS011;20721;47.402;8.550;2024-02-21T08:04:00;3.34;;;3.34;;
2710;SDS011;20721;47.402;8.550;2024-02-21T08:06:00;2.53;;;2.53;;
2710;SDS011;20721;47.402;8.550;2024-02-21T08:08:00;3.08;;;3.08;;
2710;SDS011;20721;47.402;8.550;2024-02-21T08:10:00;3.22;;;3.22;;
2710;SDS011;20721;47.402;8.550;2024-02-21T08:12:00;3.53;;;3.53;;
2710;SDS011;20721;47.402;8.550;2024-02-21T08:14:00;3.42;;;3.42;;
2710;SDS011;20721;47.402;8.550;2024-02-21T08:16:00;3.33;;;3.33;;
2710;SDS011;20721;47.402;8.550;2024-02-21T08:18:00;3.44;;;3.44;;
2710;SDS011;20721;47.402;8.550;2024-02-21T08:20:01;3.20;;;3.20;;
2710;SDS011;20721;47.402;8.550;2024-02-21T08:22:00;3.11;;;3.11;;
2710;SDS011;20721;47.402;8.550;2024-02-21T08:24:01;3.47;;;3.47;;
2710;SDS011;20721;47.402;8.550;2024-02-21T08:26:03;4.15;;;4.15;;
2710;SDS011;20721;47.402;8.550;2024-02-21T08:28:01;3.41;;;3.41;;
2710;SDS011;20721;47.402;8.550;2024-02-21T08:30:00;3.10;;;3.10;;
2710;SDS011;20721;47.402;8.550;2024-02-21T08:32:00;3.45;;;3.44;;
2710;SDS011;20721;47.402;8.550;2024-02-21T08:34:00;3.02;;;3.02;;
2710;SDS011;20721;47.402;8.550;2024-02-21T08:36:01;3.35;;;3.35;;
2710;SDS011;20721;47.402;8.550;2024-02-21T08:38:00;2.71;;;2.71;;
2710;SDS011;20721;47.402;8.550;2024-02-21T08:40:00;2.74;;;2.74;;
2710;SDS011;20721;47.402;8.550;2024-02-21T08:42:08;2.91;;;2.91;;
2710;SDS011;20721;47.402;8.550;2024-02-21T08:45:01;2.74;;;2.74;;
2710;SDS011;20721;47.402;8.550;2024-02-21T08:47:00;2.08;;;2.08;;
2710;SDS011;20721;47.402;8.550;2024-02-21T08:49:01;2.24;;;2.24;;
2710;SDS011;20721;47.402;8.550;2024-02-21T08:51:00;2.29;;;2.29;;
2710;SDS011;20721;47.402;8.550;2024-02-21T08:53:00;2.24;;;2.24;;
2710;SDS011;20721;47.402;8.550;2024-02-21T08:55:03;2.42;;;2.42;;
2710;SDS011;20721;47.402;8.550;2024-02-21T08:57:00;1.88;;;1.88;;
2710;SDS011;20721;47.402;8.550;2024-02-21T08:59:01;1.83;;;1.83;;
2710;SDS011;20721;47.402;8.550;2024-02-21T09:01:01;2.06;;;2.06;;
2710;SDS011;20721;47.402;8.550;2024-02-21T09:03:00;1.60;;;1.60;;
2710;SDS011;20721;47.402;8.550;2024-02-21T09:05:01;1.98;;;1.98;;
2710;SDS011;20721;47.402;8.550;2024-02-21T09:07:02;2.03;;;2.03;;
2710;SDS011;20721;47.402;8.550;2024-02-21T09:09:00;1.79;;;1.79;;
2710;SDS011;20721;47.402;8.550;2024-02-21T09:11:00;1.91;;;1.91;;
2710;SDS011;20721;47.402;8.550;2024-02-21T09:13:00;1.85;;;1.85;;
2710;SDS011;20721;47.402;8.550;2024-02-21T09:15:00;1.70;;;1.70;;
2710;SDS011;20721;47.402;8.550;2024-02-21T09:17:00;1.75;;;1.75;;
2710;SDS011;20721;47.402;8.550;2024-02-21T09:19:00;1.79;;;1.79;;
2710;SDS011;20721;47.402;8.550;2024-02-21T09:21:00;1.91;;;1.91;;
2710;SDS011;20721;47.402;8.550;2024-02-21T09:23:02;1.96;;;1.96;;
2710;SDS011;20721;47.402;8.550;2024-02-21T09:25:01;2.19;;;2.19;;
2710;SDS011;20721;47.402;8.550;2024-02-21T09:28:03;1.47;;;1.47;;
2710;SDS011;20721;47.402;8.550;2024-02-21T09:30:01;1.88;;;1.88;;
2710;SDS011;20721;47.402;8.550;2024-02-21T09:32:00;1.95;;;1.95;;
2710;SDS011;20721;47.402;8.550;2024-02-21T09:34:01;1.95;;;1.95;;
2710;SDS011;20721;47.402;8.550;2024-02-21T09:36:01;1.86;;;1.86;;
2710;SDS011;20721;47.402;8.550;2024-02-21T09:38:01;1.78;;;1.78;;
2710;SDS011;20721;47.402;8.550;2024-02-21T09:40:02;2.05;;;2.05;;
2710;SDS011;20721;47.402;8.550;2024-02-21T09:42:08;1.69;;;1.69;;
2710;SDS011;20721;47.402;8.550;2024-02-21T09:44:03;1.82;;;1.82;;
2710;SDS011;20721;47.402;8.550;2024-02-21T09:46:04;2.42;;;2.42;;
2710;SDS011;20721;47.402;8.550;2024-02-21T09:50:01;2.25;;;2.25;;
2710;SDS011;20721;47.402;8.550;2024-02-21T09:52:01;1.56;;;1.56;;
2710;SDS011;20721;47.402;8.550;2024-02-21T09:55:03;1.79;;;1.79;;
2710;SDS011;20721;47.402;8.550;2024-02-21T09:57:01;3.33;;;3.33;;
2710;SDS011;20721;47.402;8.550;2024-02-21T09:59:01;2.23;;;2.23;;
2710;SDS011;20721;47.402;8.550;2024-02-21T10:01:00;1.66;;;1.66;;
2710;SDS011;20721;47.402;8.550;2024-02-21T10:03:01;1.46;;;1.46;;
2710;SDS011;20721;47.402;8.550;2024-02-21T10:05:00;1.72;;;1.72;;
2710;SDS011;20721;47.402;8.550;2024-02-21T10:07:01;1.57;;;1.57;;
2710;SDS011;20721;47.402;8.550;2024-02-21T10:09:03;1.23;;;1.23;;
2710;SDS011;20721;47.402;8.550;2024-02-21T10:11:03;2.08;;;2.08;;
2710;SDS011;20721;47.402;8.550;2024-02-21T10:13:01;1.86;;;1.86;;
2710;SDS011;20721;47.402;8.550;2024-02-21T10:15:09;1.76;;;1.76;;
2710;SDS011;20721;47.402;8.550;2024-02-21T10:17:07;1.99;;;1.99;;
2710;SDS011;20721;47.402;8.550;2024-02-21T10:19:03;2.21;;;2.21;;
2710;SDS011;20721;47.402;8.550;2024-02-21T10:21:09;2.59;;;2.59;;
2710;SDS011;20721;47.402;8.550;2024-02-21T10:23:10;2.42;;;2.42;;
2710;SDS011;20721;47.402;8.550;2024-02-21T10:25:12;2.17;;;2.17;;
2710;SDS011;20721;47.402;8.550;2024-02-21T10:27:08;2.41;;;2.41;;
2710;SDS011;20721;47.402;8.550;2024-02-21T10:29:02;2.28;;;2.28;;
2710;SDS011;20721;47.402;8.550;2024-02-21T10:31:02;2.37;;;2.37;;
2710;SDS011;20721;47.402;8.550;2024-02-21T10:33:03;2.22;;;2.22;;
2710;SDS011;20721;47.402;8.550;2024-02-21T10:35:10;2.33;;;2.33;;
2710;SDS011;20721;47.402;8.550;2024-02-21T10:37:09;2.53;;;2.53;;
2710;SDS011;20721;47.402;8.550;2024-02-21T10:39:01;2.79;;;2.79;;
2710;SDS011;20721;47.402;8.550;2024-02-21T10:41:05;2.85;;;2.85;;
2710;SDS011;20721;47.402;8.550;2024-02-21T10:43:07;2.56;;;2.56;;
2710;SDS011;20721;47.402;8.550;2024-02-21T10:45:01;2.59;;;2.59;;
2710;SDS011;20721;47.402;8.550;2024-02-21T10:47:01;2.52;;;2.52;;
2710;SDS011;20721;47.402;8.550;2024-02-21T10:49:12;2.88;;;2.88;;
2710;SDS011;20721;47.402;8.550;2024-02-21T10:51:15;2.42;;;2.42;;
2710;SDS011;20721;47.402;8.550;2024-02-21T10:53:09;2.51;;;2.51;;
2710;SDS011;20721;47.402;8.550;2024-02-21T10:55:09;2.65;;;2.65;;
2710;SDS011;20721;47.402;8.550;2024-02-21T10:57:02;2.41;;;2.41;;
2710;SDS011;20721;47.402;8.550;2024-02-21T10:59:02;2.66;;;2.66;;
2710;SDS011;20721;47.402;8.550;2024-02-21T11:01:01;3.06;;;3.06;;
2710;SDS011;20721;47.402;8.550;2024-02-21T11:03:01;2.93;;;2.93;;
2710;SDS011;20721;47.402;8.550;2024-02-21T11:05:04;3.87;;;3.87;;
2710;SDS011;20721;47.402;8.550;2024-02-21T11:07:03;3.06;;;3.06;;
2710;SDS011;20721;47.402;8.550;2024-02-21T11:09:13;2.81;;;2.81;;
2710;SDS011;20721;47.402;8.550;2024-02-21T11:11:06;2.96;;;2.96;;
2710;SDS011;20721;47.402;8.550;2024-02-21T11:13:06;3.24;;;3.24;;
2710;SDS011;20721;47.402;8.550;2024-02-21T11:15:03;2.81;;;2.81;;
2710;SDS011;20721;47.402;8.550;2024-02-21T11:17:01;3.25;;;3.25;;
2710;SDS011;20721;47.402;8.550;2024-02-21T11:19:05;2.82;;;2.82;;
2710;SDS011;20721;47.402;8.550;2024-02-21T11:21:01;2.71;;;2.71;;
2710;SDS011;20721;47.402;8.550;2024-02-21T11:23:02;3.01;;;3.01;;
2710;SDS011;20721;47.402;8.550;2024-02-21T11:25:06;3.28;;;3.28;;
2710;SDS011;20721;47.402;8.550;2024-02-21T11:27:13;2.41;;;2.41;;
2710;SDS011;20721;47.402;8.550;2024-02-21T11:29:07;2.87;;;2.87;;
2710;SDS011;20721;47.402;8.550;2024-02-21T11:31:07;2.88;;;2.88;;
2710;SDS011;20721;47.402;8.550;2024-02-21T11:33:08;2.93;;;2.93;;
2710;SDS011;20721;47.402;8.550;2024-02-21T11:36:03;3.04;;;3.04;;
2710;SDS011;20721;47.402;8.550;2024-02-21T11:38:22;2.60;;;2.60;;
2710;SDS011;20721;47.402;8.550;2024-02-21T11:40:03;2.79;;;2.79;;
2710;SDS011;20721;47.402;8.550;2024-02-21T11:42:20;3.16;;;3.16;;
2710;SDS011;20721;47.402;8.550;2024-02-21T11:44:01;3.26;;;3.26;;
2710;SDS011;20721;47.402;8.550;2024-02-21T11:46:08;3.06;;;3.06;;
2710;SDS011;20721;47.402;8.550;2024-02-21T11:48:01;3.05;;;3.05;;
2710;SDS011;20721;47.402;8.550;2024-02-21T11:50:04;2.74;;;2.74;;
2710;SDS011;20721;47.402;8.550;2024-02-21T11:52:07;3.84;;;3.84;;
2710;SDS011;20721;47.402;8.550;2024-02-21T11:55:01;2.88;;;2.88;;
2710;SDS011;20721;47.402;8.550;2024-02-21T11:57:01;2.86;;;2.86;;
2710;SDS011;20721;47.402;8.550;2024-02-21T11:59:01;2.85;;;2.85;;
2710;SDS011;20721;47.402;8.550;2024-02-21T12:01:02;2.48;;;2.48;;
2710;SDS011;20721;47.402;8.550;2024-02-21T12:03:01;3.07;;;3.07;;
2710;SDS011;20721;47.402;8.550;2024-02-21T12:05:01;3.82;;;3.82;;
2710;SDS011;20721;47.402;8.550;2024-02-21T12:07:02;3.22;;;3.22;;
2710;SDS011;20721;47.402;8.550;2024-02-21T12:09:01;2.40;;;2.40;;
2710;SDS011;20721;47.402;8.550;2024-02-21T12:11:01;2.48;;;2.48;;
2710;SDS011;20721;47.402;8.550;2024-02-21T12:13:05;3.36;;;3.36;;
2710;SDS011;20721;47.402;8.550;2024-02-21T12:15:06;2.97;;;2.97;;
2710;SDS011;20721;47.402;8.550;2024-02-21T12:18:01;2.95;;;2.95;;
2710;SDS011;20721;47.402;8.550;2024-02-21T12:21:04;3.05;;;3.05;;
2710;SDS011;20721;47.402;8.550;2024-02-21T12:23:02;2.70;;;2.70;;
2710;SDS011;20721;47.402;8.550;2024-02-21T12:25:03;2.87;;;2.87;;
2710;SDS011;20721;47.402;8.550;2024-02-21T12:27:03;2.90;;;2.90;;
2710;SDS011;20721;47.402;8.550;2024-02-21T12:29:01;3.57;;;3.57;;
2710;SDS011;20721;47.402;8.550;2024-02-21T12:31:02;2.91;;;2.91;;
2710;SDS011;20721;47.402;8.550;2024-02-21T12:33:01;3.13;;;3.13;;
2710;SDS011;20721;47.402;8.550;2024-02-21T12:35:05;2.98;;;2.98;;
2710;SDS011;20721;47.402;8.550;2024-02-21T12:37:02;2.99;;;2.99;;
2710;SDS011;20721;47.402;8.550;2024-02-21T12:39:01;3.40;;;3.40;;
2710;SDS011;20721;47.402;8.550;2024-02-21T12:41:01;2.68;;;2.68;;
2710;SDS011;20721;47.402;8.550;2024-02-21T12:43:02;3.53;;;3.53;;
2710;SDS011;20721;47.402;8.550;2024-02-21T12:45:02;7.47;;;7.47;;
2710;SDS011;20721;47.402;8.550;2024-02-21T12:47:03;4.29;;;4.29;;
2710;SDS011;20721;47.402;8.550;2024-02-21T12:49:01;3.43;;;3.43;;
2710;SDS011;20721;47.402;8.550;2024-02-21T12:51:01;3.65;;;3.65;;
2710;SDS011;20721;47.402;8.550;2024-02-21T12:53:01;3.57;;;3.57;;
2710;SDS011;20721;47.402;8.550;2024-02-21T12:55:01;3.39;;;3.39;;
2710;SDS011;20721;47.402;8.550;2024-02-21T12:58:02;3.38;;;3.38;;
2710;SDS011;20721;47.402;8.550;2024-02-21T13:00:01;3.26;;;3.26;;
2710;SDS011;20721;47.402;8.550;2024-02-21T13:02:02;2.80;;;2.80;;
2710;SDS011;20721;47.402;8.550;2024-02-21T13:04:01;2.89;;;2.89;;
2710;SDS011;20721;47.402;8.550;2024-02-21T13:06:01;3.31;;;3.31;;